createdAt,value
2023-01-29T00:01:19.973Z,0.45
2023-01-29T00:06:23.146Z,0.42
2023-01-29T00:11:25.482Z,0.41
2023-01-29T00:16:27.352Z,0.43
2023-01-29T00:21:30.880Z,0.43
2023-01-29T00:26:32.716Z,0.42
2023-01-29T00:31:34.730Z,0.42
2023-01-29T00:36:36.317Z,0.43
2023-01-29T00:41:57.144Z,0.45
2023-01-29T00:46:58.932Z,0.49
2023-01-29T00:52:19.167Z,0.47
2023-01-29T00:57:21.002Z,0.51
2023-01-29T01:02:41.817Z,0.53
2023-01-29T01:07:48.398Z,0.57
2023-01-29T01:13:00.566Z,0.56
2023-01-29T01:18:03.586Z,0.59
2023-01-29T01:23:05.230Z,0.61
2023-01-29T01:28:07.255Z,0.61
2023-01-29T01:33:08.954Z,0.61
2023-01-29T01:38:11.202Z,0.62
2023-01-29T01:43:12.782Z,0.63
2023-01-29T01:48:23.245Z,0.64
2023-01-29T01:53:39.368Z,0.69
2023-01-29T01:58:45.362Z,0.69
2023-01-29T02:04:16.467Z,0.68
2023-01-29T02:09:34.353Z,0.68
2023-01-29T02:14:40.678Z,0.60
2023-01-29T02:19:54.516Z,0.57
2023-01-29T02:25:09.812Z,0.55
2023-01-29T02:30:14.293Z,0.49
2023-01-29T02:35:26.061Z,0.45
2023-01-29T02:41:00.046Z,0.44
2023-01-29T02:46:13.956Z,0.48
2023-01-29T02:51:25.043Z,0.50
2023-01-29T02:56:37.257Z,0.54
2023-01-29T03:01:44.837Z,0.56
2023-01-29T03:06:54.427Z,0.62
2023-01-29T03:12:19.855Z,0.65
2023-01-29T03:17:27.445Z,0.66
2023-01-29T03:22:30.710Z,0.69
2023-01-29T03:28:02.183Z,0.76
2023-01-29T03:33:11.430Z,0.77
2023-01-29T03:38:14.397Z,0.84
2023-01-29T03:43:34.199Z,0.85
2023-01-29T03:48:36.403Z,0.91
2023-01-29T03:53:47.840Z,0.94
2023-01-29T03:59:01.376Z,0.99
2023-01-29T04:04:37.822Z,1.01
2023-01-29T04:09:48.095Z,1.07
2023-01-29T04:14:53.557Z,1.06
2023-01-29T04:19:55.721Z,1.13
2023-01-29T04:25:02.491Z,1.16
2023-01-29T04:30:13.573Z,1.18
2023-01-29T04:35:16.812Z,1.20
2023-01-29T04:40:56.969Z,1.20
2023-01-29T04:46:19.052Z,1.20
2023-01-29T04:51:32.726Z,1.24
2023-01-29T04:56:44.441Z,1.27
2023-01-29T05:01:47.436Z,1.31
2023-01-29T05:06:51.041Z,1.33
2023-01-29T05:11:53.392Z,1.34
2023-01-29T05:16:57.068Z,1.35
2023-01-29T05:21:59.443Z,1.33
2023-01-29T05:27:19.700Z,1.38
2023-01-29T05:32:21.203Z,1.35
2023-01-29T05:37:22.969Z,1.33
2023-01-29T05:42:24.543Z,1.33
2023-01-29T05:47:26.045Z,1.28
2023-01-29T05:52:27.574Z,1.21
2023-01-29T05:57:29.113Z,1.19
2023-01-29T06:02:31.407Z,1.19
2023-01-29T06:07:32.983Z,1.17
2023-01-29T06:12:34.471Z,1.20
2023-01-29T06:17:36.008Z,1.22
2023-01-29T06:22:37.581Z,1.20
2023-01-29T06:27:39.093Z,1.21
2023-01-29T06:32:40.659Z,1.24
2023-01-29T06:37:42.292Z,1.27
2023-01-29T06:42:46.052Z,1.28
2023-01-29T06:47:47.721Z,1.28
2023-01-29T06:52:49.242Z,1.29
2023-01-29T06:57:50.988Z,1.27
2023-01-29T07:03:05.869Z,1.24
2023-01-29T07:08:08.763Z,1.26
2023-01-29T07:13:10.357Z,1.27
2023-01-29T07:18:12.580Z,1.29
2023-01-29T07:23:15.305Z,1.28
2023-01-29T07:28:23.281Z,1.30
2023-01-29T07:33:25.657Z,1.32
2023-01-29T07:38:27.332Z,1.32
2023-01-29T07:43:30.206Z,1.36
2023-01-29T07:48:31.892Z,1.42
2023-01-29T07:53:33.511Z,1.45
2023-01-29T07:58:36.747Z,1.46
2023-01-29T08:03:38.634Z,1.49
2023-01-29T08:08:40.122Z,1.52
2023-01-29T08:13:41.692Z,1.61
2023-01-29T08:18:47.798Z,1.71
2023-01-29T08:23:49.415Z,1.77
2023-01-29T08:28:50.896Z,1.80
2023-01-29T08:33:54.546Z,1.84
2023-01-29T08:38:56.097Z,1.93
2023-01-29T08:43:57.963Z,1.98
2023-01-29T08:48:59.507Z,2.02
2023-01-29T08:54:01.025Z,2.08
2023-01-29T08:59:02.514Z,2.05
2023-01-29T09:04:04.015Z,2.00
2023-01-29T09:09:05.538Z,2.00
2023-01-29T09:14:07.339Z,1.98
2023-01-29T09:19:08.870Z,1.99
2023-01-29T09:24:10.794Z,1.99
2023-01-29T09:29:12.369Z,1.99
2023-01-29T09:34:14.140Z,2.04
2023-01-29T09:39:15.754Z,2.10
2023-01-29T09:44:28.497Z,2.13
2023-01-29T09:49:37.720Z,2.22
2023-01-29T09:55:22.524Z,2.39
2023-01-29T10:00:32.930Z,2.45
2023-01-29T10:05:55.959Z,2.53
2023-01-29T10:11:16.132Z,2.57
2023-01-29T10:16:26.991Z,2.74
2023-01-29T10:21:35.400Z,2.94
2023-01-29T10:26:38.025Z,2.90
2023-01-29T10:31:40.326Z,2.91
2023-01-29T10:36:45.599Z,2.98
2023-01-29T10:41:54.077Z,3.10
2023-01-29T10:47:17.061Z,3.06
2023-01-29T10:52:50.768Z,3.11
2023-01-29T10:58:22.687Z,3.13
2023-01-29T11:03:29.949Z,3.12
2023-01-29T11:08:42.380Z,3.10
2023-01-29T11:13:48.535Z,3.16
2023-01-29T11:18:55.161Z,3.29
2023-01-29T11:24:16.990Z,3.30
2023-01-29T11:29:33.635Z,3.31
2023-01-29T11:34:35.201Z,3.26
2023-01-29T11:39:44.404Z,3.26
2023-01-29T11:44:46.451Z,3.26
2023-01-29T11:49:53.877Z,3.25
2023-01-29T11:55:03.802Z,3.25
2023-01-29T12:00:18.169Z,3.24
2023-01-29T12:05:23.742Z,3.25
2023-01-29T12:10:37.219Z,3.26
2023-01-29T12:15:40.952Z,3.26
2023-01-29T12:20:56.038Z,3.26
2023-01-29T12:26:09.624Z,3.27
2023-01-29T12:31:20.250Z,3.26
2023-01-29T12:36:28.009Z,3.22
2023-01-29T12:41:47.842Z,3.27
2023-01-29T12:46:54.870Z,3.22
2023-01-29T12:52:23.204Z,3.27
2023-01-29T12:57:34.743Z,3.23
2023-01-29T13:02:55.486Z,3.19
2023-01-29T13:08:04.237Z,3.16
2023-01-29T13:13:15.876Z,3.03
2023-01-29T13:18:32.236Z,2.96
2023-01-29T13:23:46.895Z,2.87
2023-01-29T13:28:49.706Z,2.89
2023-01-29T13:34:25.524Z,2.86
2023-01-29T13:39:32.809Z,2.85
2023-01-29T13:44:39.790Z,2.88
2023-01-29T13:49:53.550Z,2.91
2023-01-29T13:55:00.248Z,2.91
2023-01-29T14:00:01.813Z,2.97
2023-01-29T14:05:31.494Z,2.93
2023-01-29T14:10:35.214Z,2.91
2023-01-29T14:15:38.181Z,2.89
2023-01-29T14:21:01.580Z,2.94
2023-01-29T14:26:06.266Z,2.91
2023-01-29T14:31:08.356Z,2.90
2023-01-29T14:36:14.359Z,2.80
2023-01-29T14:41:22.079Z,2.79
2023-01-29T14:46:35.664Z,2.74
2023-01-29T14:51:41.670Z,2.69
2023-01-29T14:56:49.754Z,2.56
2023-01-29T15:01:58.026Z,2.46
2023-01-29T15:07:01.433Z,2.43
2023-01-29T15:12:14.282Z,2.43
2023-01-29T15:17:25.063Z,2.43
2023-01-29T15:22:28.955Z,2.33
2023-01-29T15:27:30.934Z,2.29
2023-01-29T15:32:35.902Z,2.30
2023-01-29T15:37:37.856Z,2.27
2023-01-29T15:42:48.469Z,2.28
2023-01-29T15:47:50.890Z,2.17
2023-01-29T15:52:54.451Z,2.11
2023-01-29T15:57:57.429Z,2.03
2023-01-29T16:03:01.406Z,1.99
2023-01-29T16:08:04.040Z,1.99
2023-01-29T16:13:05.655Z,1.96
2023-01-29T16:18:35.949Z,1.91
2023-01-29T16:23:48.596Z,1.78
2023-01-29T16:28:50.992Z,1.70
2023-01-29T16:33:54.593Z,1.65
2023-01-29T16:39:02.215Z,1.62
2023-01-29T16:44:37.965Z,1.58
2023-01-29T16:49:39.402Z,1.53
2023-01-29T16:54:44.102Z,1.48
2023-01-29T16:59:46.832Z,1.45
2023-01-29T17:04:48.803Z,1.41
2023-01-29T17:09:54.191Z,1.43
2023-01-29T17:15:30.688Z,1.47
2023-01-29T17:20:32.440Z,1.45
2023-01-29T17:25:33.967Z,1.49
2023-01-29T17:30:37.242Z,1.47
2023-01-29T17:35:39.301Z,1.50
2023-01-29T17:40:53.464Z,1.53
2023-01-29T17:45:55.006Z,1.53
2023-01-29T17:51:00.406Z,1.52
2023-01-29T17:56:02.467Z,1.46
2023-01-29T18:01:04.134Z,1.49
2023-01-29T18:06:10.129Z,1.47
2023-01-29T18:11:12.984Z,1.48
2023-01-29T18:16:15.742Z,1.47
2023-01-29T18:21:17.868Z,1.48
2023-01-29T18:26:19.503Z,1.47
2023-01-29T18:31:24.081Z,1.50
2023-01-29T18:36:25.610Z,1.53
2023-01-29T18:41:27.185Z,1.56
2023-01-29T18:46:28.823Z,1.62
2023-01-29T18:51:30.683Z,1.66
2023-01-29T18:56:32.394Z,1.66
2023-01-29T19:01:33.941Z,1.70
2023-01-29T19:06:37.147Z,1.73
2023-01-29T19:11:39.558Z,1.74
2023-01-29T19:16:42.583Z,1.74
2023-01-29T19:21:44.293Z,1.79
2023-01-29T19:26:45.899Z,1.81
2023-01-29T19:31:47.844Z,1.80
2023-01-29T19:36:49.424Z,1.87
2023-01-29T19:41:50.962Z,1.86
2023-01-29T19:46:52.713Z,1.86
2023-01-29T19:51:56.311Z,1.91
2023-01-29T19:56:58.185Z,1.97
2023-01-29T20:02:00.043Z,2.06
2023-01-29T20:07:01.810Z,2.09
2023-01-29T20:12:04.333Z,2.14
2023-01-29T20:17:07.809Z,2.22
2023-01-29T20:22:09.780Z,2.24
2023-01-29T20:27:12.269Z,2.33
2023-01-29T20:32:14.530Z,2.35
2023-01-29T20:37:16.050Z,2.37
2023-01-29T20:42:18.061Z,2.41
2023-01-29T20:47:19.719Z,2.44
2023-01-29T20:52:21.630Z,2.48
2023-01-29T20:57:24.160Z,2.48
2023-01-29T21:02:28.938Z,2.47
2023-01-29T21:07:30.438Z,2.49
2023-01-29T21:12:31.953Z,2.51
2023-01-29T21:17:34.131Z,2.53
2023-01-29T21:22:37.093Z,2.51
2023-01-29T21:27:38.736Z,2.52
2023-01-29T21:32:40.227Z,2.45
2023-01-29T21:37:42.029Z,2.41
2023-01-29T21:43:02.027Z,2.41
2023-01-29T21:48:05.348Z,2.36
2023-01-29T21:53:07.627Z,2.34
2023-01-29T21:58:11.488Z,2.32
2023-01-29T22:03:14.900Z,2.27
2023-01-29T22:08:18.767Z,2.25
2023-01-29T22:13:21.874Z,2.18
2023-01-29T22:18:24.034Z,2.20
2023-01-29T22:23:25.526Z,2.20
2023-01-29T22:28:27.016Z,2.22
2023-01-29T22:33:28.633Z,2.24
2023-01-29T22:38:30.972Z,2.26
2023-01-29T22:43:33.499Z,2.28
2023-01-29T22:48:35.557Z,2.32
2023-01-29T22:53:51.494Z,2.34
2023-01-29T22:58:55.624Z,2.36
2023-01-29T23:03:57.461Z,2.41
2023-01-29T23:08:58.958Z,2.45
2023-01-29T23:14:00.459Z,2.50
2023-01-29T23:19:01.942Z,2.58
2023-01-29T23:24:03.912Z,2.65
2023-01-29T23:29:05.765Z,2.68
2023-01-29T23:34:07.322Z,2.72
2023-01-29T23:39:09.048Z,2.79
2023-01-29T23:44:10.600Z,2.88
2023-01-29T23:49:12.131Z,2.92
2023-01-29T23:54:14.164Z,3.00
2023-01-29T23:59:16.268Z,3.00
